createdAt,value
2023-03-23T15:59:09.199Z,101228.94
2023-03-23T16:01:38.140Z,101230.25
2023-03-23T16:04:05.400Z,101230.78
2023-03-23T16:06:33.476Z,101223.19
2023-03-23T16:09:01.029Z,101227.06
2023-03-23T16:11:29.423Z,101224.72
2023-03-23T16:13:56.434Z,101218.94
2023-03-23T16:16:26.411Z,101223.69
2023-03-23T16:18:53.674Z,101220.25
2023-03-23T16:21:20.651Z,101222.06
2023-03-23T16:23:47.816Z,101222.06
2023-03-23T16:26:15.551Z,101220.47
2023-03-23T16:28:43.226Z,101222.72
2023-03-23T16:31:10.694Z,101225.63
2023-03-23T16:36:05.061Z,101224.31
2023-03-23T16:38:32.135Z,101219.31
2023-03-23T16:40:59.512Z,101228.22
2023-03-23T16:43:26.568Z,101217.97
2023-03-23T16:45:55.466Z,101230.00
2023-03-23T16:48:23.189Z,101237.81
2023-03-23T16:50:51.748Z,101239.13
2023-03-23T16:53:19.240Z,101235.69
2023-03-23T16:55:48.526Z,101229.56
2023-03-23T16:58:17.756Z,101227.19
2023-03-23T17:00:47.698Z,101221.16
2023-03-23T17:03:16.641Z,101224.22
2023-03-23T17:05:45.279Z,101228.84
2023-03-23T17:08:12.534Z,101232.25
2023-03-23T17:10:40.972Z,101238.72
2023-03-23T17:13:08.624Z,101238.94
2023-03-23T17:15:39.954Z,101242.81
2023-03-23T17:18:07.258Z,101242.25
2023-03-23T17:20:34.338Z,101243.28
2023-03-23T17:23:01.643Z,101247.19
2023-03-23T17:25:30.501Z,101249.00
2023-03-23T17:27:58.084Z,101244.00
2023-03-23T17:30:33.135Z,101256.44
2023-03-23T17:33:00.198Z,101257.19
2023-03-23T17:35:27.542Z,101259.22
2023-03-23T17:37:54.534Z,101263.91
2023-03-23T17:40:21.561Z,101270.59
2023-03-23T17:42:48.510Z,101276.81
2023-03-23T17:45:15.702Z,101273.09
2023-03-23T17:47:42.848Z,101279.03
2023-03-23T17:50:12.363Z,101278.47
2023-03-23T17:52:40.440Z,101275.50
2023-03-23T17:55:07.758Z,101283.06
2023-03-23T17:57:35.291Z,101286.44
2023-03-23T18:00:02.701Z,101296.34
2023-03-23T18:02:33.935Z,101290.03
2023-03-23T18:05:01.137Z,101292.63
2023-03-23T18:07:28.218Z,101300.16
2023-03-23T18:10:01.568Z,101299.81
2023-03-23T18:12:28.602Z,101304.97
2023-03-23T18:14:56.269Z,101305.13
2023-03-23T18:17:23.366Z,101310.28
2023-03-23T18:19:50.379Z,101320.09
2023-03-23T18:22:17.278Z,101318.75
2023-03-23T18:24:44.370Z,101315.31
2023-03-23T18:27:11.398Z,101322.53
2023-03-23T18:29:38.444Z,101315.41
2023-03-23T18:32:07.356Z,101314.84
2023-03-23T18:34:35.240Z,101309.31
2023-03-23T18:37:02.319Z,101309.94
2023-03-23T18:39:31.835Z,101309.34
2023-03-23T18:41:58.801Z,101322.59
2023-03-23T18:44:26.038Z,101310.75
2023-03-23T18:46:53.014Z,101318.28
2023-03-23T18:49:20.014Z,101320.53
2023-03-23T18:51:46.926Z,101319.44
2023-03-23T18:54:13.967Z,101320.44
2023-03-23T18:56:41.117Z,101322.50
2023-03-23T18:59:08.504Z,101325.16
2023-03-23T19:01:35.676Z,101326.69
2023-03-23T19:04:07.038Z,101331.31
2023-03-23T19:06:35.202Z,101325.97
2023-03-23T19:09:02.403Z,101327.97
2023-03-23T19:11:29.393Z,101340.81
2023-03-23T19:14:02.188Z,101347.91
2023-03-23T19:16:31.454Z,101358.75
2023-03-23T19:18:58.672Z,101361.81
2023-03-23T19:21:29.672Z,101362.28
2023-03-23T19:23:58.543Z,101362.50
2023-03-23T19:26:31.162Z,101355.38
2023-03-23T19:31:29.703Z,101363.09
2023-03-23T19:33:56.910Z,101368.03
2023-03-23T19:36:24.488Z,101365.19
2023-03-23T19:38:54.438Z,101366.28
2023-03-23T19:41:22.245Z,101353.78
2023-03-23T19:43:49.415Z,101346.34
2023-03-23T19:46:16.478Z,101347.59
2023-03-23T19:48:43.849Z,101348.72
2023-03-23T19:51:11.690Z,101355.38
2023-03-23T19:53:39.758Z,101362.03
2023-03-23T19:56:12.225Z,101356.00
2023-03-23T19:58:39.276Z,101363.59
2023-03-23T20:01:06.492Z,101366.47
2023-03-23T20:03:33.688Z,101362.50
2023-03-23T20:06:01.530Z,101366.59
2023-03-23T20:08:28.927Z,101367.56
2023-03-23T20:11:03.360Z,101358.22
2023-03-23T20:13:30.395Z,101357.44
2023-03-23T20:16:00.134Z,101361.56
2023-03-23T20:18:29.182Z,101362.50
2023-03-23T20:21:14.254Z,101370.59
2023-03-23T20:23:42.083Z,101362.81
2023-03-23T20:26:14.210Z,101367.09
2023-03-23T20:28:42.815Z,101365.34
2023-03-23T20:31:22.498Z,101359.50
2023-03-23T20:34:00.611Z,101358.69
2023-03-23T20:36:36.072Z,101357.72
2023-03-23T20:39:05.703Z,101357.25
2023-03-23T20:41:36.122Z,101364.66
2023-03-23T20:44:08.529Z,101358.72
2023-03-23T20:46:36.698Z,101356.91
2023-03-23T20:49:06.563Z,101349.53
2023-03-23T20:51:34.468Z,101354.97
2023-03-23T20:54:02.184Z,101350.09
2023-03-23T20:56:29.357Z,101349.81
2023-03-23T20:58:56.427Z,101346.00
2023-03-23T21:01:23.918Z,101347.88
2023-03-23T21:03:52.610Z,101345.66
2023-03-23T21:06:20.575Z,101341.53
2023-03-23T21:08:47.620Z,101338.84
2023-03-23T21:11:19.294Z,101344.06
2023-03-23T21:13:46.626Z,101346.94
2023-03-23T21:16:13.754Z,101346.16
2023-03-23T21:18:42.054Z,101348.41
2023-03-23T21:21:11.450Z,101352.22
2023-03-23T21:23:46.425Z,101359.81
2023-03-23T21:26:16.997Z,101360.16
2023-03-23T21:28:45.371Z,101367.41
2023-03-23T21:31:13.583Z,101362.19
2023-03-23T21:33:41.083Z,101359.66
2023-03-23T21:36:08.080Z,101359.94
2023-03-23T21:38:35.578Z,101359.66
2023-03-23T21:41:06.916Z,101366.22
2023-03-23T21:43:33.857Z,101363.75
2023-03-23T21:46:03.779Z,101353.38
2023-03-23T21:48:31.035Z,101356.69
2023-03-23T21:51:03.990Z,101361.00
2023-03-23T21:53:33.954Z,101364.75
2023-03-23T21:56:01.021Z,101365.56
2023-03-23T21:58:28.062Z,101360.66
2023-03-23T22:00:55.688Z,101354.34
2023-03-23T22:03:23.652Z,101356.28
2023-03-23T22:05:57.285Z,101358.00
2023-03-23T22:08:25.600Z,101359.72
2023-03-23T22:11:01.319Z,101363.50
2023-03-23T22:13:30.481Z,101364.63
2023-03-23T22:15:58.380Z,101363.44
2023-03-23T22:18:25.554Z,101369.63
2023-03-23T22:20:52.731Z,101365.63
2023-03-23T22:23:19.687Z,101369.13
2023-03-23T22:25:46.692Z,101369.47
2023-03-23T22:28:13.701Z,101372.19
2023-03-23T22:30:40.804Z,101362.84
2023-03-23T22:33:08.122Z,101363.09
2023-03-23T22:35:35.290Z,101364.78
2023-03-23T22:38:05.123Z,101365.03
2023-03-23T22:40:32.195Z,101363.78
2023-03-23T22:42:59.405Z,101367.31
2023-03-23T22:45:27.914Z,101358.16
2023-03-23T22:47:55.084Z,101360.81
2023-03-23T22:50:24.233Z,101358.78
2023-03-23T22:52:51.320Z,101359.72
2023-03-23T22:55:18.533Z,101352.38
2023-03-23T22:57:45.927Z,101362.50
2023-03-23T23:00:17.560Z,101368.22
2023-03-23T23:02:44.924Z,101375.91
2023-03-23T23:05:12.642Z,101382.25
2023-03-23T23:07:39.684Z,101381.38
2023-03-23T23:10:06.929Z,101376.06
2023-03-23T23:12:35.374Z,101378.00
2023-03-23T23:15:04.473Z,101383.94
2023-03-23T23:17:32.168Z,101386.81
2023-03-23T23:20:00.086Z,101387.22
2023-03-23T23:22:27.227Z,101385.75
2023-03-23T23:24:54.629Z,101389.19
2023-03-23T23:27:21.678Z,101387.84
2023-03-23T23:29:48.999Z,101382.31
2023-03-23T23:32:16.987Z,101371.56
2023-03-23T23:34:44.031Z,101374.28
2023-03-23T23:37:10.965Z,101373.75
2023-03-23T23:39:40.766Z,101380.31
2023-03-23T23:42:07.756Z,101378.50
2023-03-23T23:44:35.153Z,101372.03
2023-03-23T23:47:02.684Z,101369.41
2023-03-23T23:49:29.750Z,101362.25
2023-03-23T23:51:56.749Z,101360.44
2023-03-23T23:54:30.091Z,101355.09
2023-03-23T23:56:58.683Z,101353.41
2023-03-23T23:59:26.449Z,101355.00
